Time,TemperatureF,DewpointF,PressureIn,WindDirection,WindDirectionDegrees,WindSpeedMPH,WindSpeedGustMPH,Humidity,HourlyPrecipIn,Conditions,Clouds,dailyrainin,SoftwareType,DateUTC
2013-05-31 00:02:00,63.0,60.0,-100.00,South,170,6.0,11.0,90,0.00,,,-99.99,,2013-05-31 05:02:00,
2013-05-31 00:12:00,63.0,60.0,-100.00,South,190,6.0,11.0,90,0.00,,,-99.99,,2013-05-31 05:12:00,
2013-05-31 00:22:00,62.0,60.0,-100.00,SSE,165,6.0,11.0,90,0.00,,,-99.99,,2013-05-31 05:22:00,
2013-05-31 00:32:00,62.0,59.0,-100.00,SSE,160,7.0,12.0,90,0.00,,,-99.99,,2013-05-31 05:32:00,
2013-05-31 00:42:00,62.0,59.0,-100.00,SSE,160,7.0,12.0,90,0.00,,,-99.99,,2013-05-31 05:42:00,
2013-05-31 00:52:00,61.0,58.0,-100.00,SSE,160,6.0,11.0,90,0.00,,,-99.99,,2013-05-31 05:52:00,
2013-05-31 01:02:00,61.0,58.0,-100.00,SSE,160,6.0,11.0,90,0.00,,,-99.99,,2013-05-31 06:02:00,
2013-05-31 01:12:00,61.0,58.0,-100.00,South,175,6.0,12.0,90,0.00,,,-99.99,,2013-05-31 06:12:00,
2013-05-31 01:21:00,61.0,58.0,-100.00,South,180,6.0,12.0,90,0.00,,,-99.99,,2013-05-31 06:21:00,
2013-05-31 01:31:00,61.0,58.0,-100.00,South,170,4.0,9.0,90,0.00,,,-99.99,,2013-05-31 06:31:00,
2013-05-31 01:41:00,61.0,58.0,-100.00,South,170,4.0,9.0,90,0.00,,,-99.99,,2013-05-31 06:41:00,
2013-05-31 01:51:00,62.0,59.0,-100.00,SE,145,6.0,12.0,90,0.00,,,-99.99,,2013-05-31 06:51:00,
2013-05-31 02:02:00,62.0,59.0,-100.00,SE,145,6.0,12.0,90,0.00,,,-99.99,,2013-05-31 07:02:00,
2013-05-31 02:11:00,62.0,59.0,-100.00,SSE,160,7.0,14.0,90,0.00,,,-99.99,,2013-05-31 07:11:00,
2013-05-31 02:21:00,62.0,59.0,-100.00,South,175,8.0,14.0,90,0.00,,,-99.99,,2013-05-31 07:21:00,
2013-05-31 02:32:00,62.0,59.0,-100.00,South,185,4.0,13.0,90,0.00,,,-99.99,,2013-05-31 07:32:00,
2013-05-31 02:41:00,62.0,59.0,-100.00,South,185,4.0,13.0,90,0.00,,,-99.99,,2013-05-31 07:41:00,
2013-05-31 02:52:00,62.0,59.0,-100.00,South,180,7.0,17.0,90,0.00,,,-99.99,,2013-05-31 07:52:00,
2013-05-31 03:02:00,62.0,59.0,-100.00,South,180,7.0,17.0,90,0.00,,,-99.99,,2013-05-31 08:02:00,
2013-05-31 03:11:00,62.0,59.0,-100.00,SSW,195,6.0,12.0,90,0.00,,,-99.99,,2013-05-31 08:11:00,
2013-05-31 03:21:00,62.0,59.0,-100.00,SSE,160,6.0,11.0,90,0.00,,,-99.99,,2013-05-31 08:21:00,
2013-05-31 03:32:00,62.0,59.0,-100.00,SSE,155,4.0,9.0,90,0.00,,,-99.99,,2013-05-31 08:32:00,
2013-05-31 03:42:00,62.0,59.0,-100.00,SSE,155,4.0,9.0,90,0.00,,,-99.99,,2013-05-31 08:42:00,
2013-05-31 03:51:00,62.0,59.0,-100.00,SSE,155,6.0,11.0,90,0.00,,,-99.99,,2013-05-31 08:51:00,
2013-05-31 04:01:00,62.0,59.0,-100.00,SSE,155,6.0,11.0,90,0.00,,,-99.99,,2013-05-31 09:01:00,
2013-05-31 04:11:00,62.0,59.0,-100.00,SE,135,5.0,11.0,90,0.00,,,-99.99,,2013-05-31 09:11:00,
2013-05-31 04:21:00,62.0,59.0,-100.00,ESE,110,2.0,11.0,90,0.00,,,-99.99,,2013-05-31 09:21:00,
2013-05-31 04:32:00,62.0,59.0,-100.00,SE,135,4.0,8.0,90,0.00,,,-99.99,,2013-05-31 09:32:00,
2013-05-31 04:43:00,62.0,59.0,-100.00,SE,135,4.0,8.0,90,0.00,,,-99.99,,2013-05-31 09:43:00,
2013-05-31 04:53:00,62.0,59.0,-100.00,SE,135,5.0,11.0,90,0.00,,,-99.99,,2013-05-31 09:53:00,
2013-05-31 05:02:00,62.0,59.0,-100.00,SE,135,5.0,11.0,90,0.00,,,-99.99,,2013-05-31 10:02:00,
2013-05-31 05:12:00,62.0,59.0,-100.00,SE,135,7.0,12.0,90,0.00,,,-99.99,,2013-05-31 10:12:00,
2013-05-31 05:22:00,62.0,59.0,-100.00,SSE,150,7.0,16.0,90,0.00,,,-99.99,,2013-05-31 10:22:00,
2013-05-31 05:33:00,62.0,59.0,-100.00,SE,140,7.0,12.0,90,0.00,,,-99.99,,2013-05-31 10:33:00,
2013-05-31 05:42:00,62.0,59.0,-100.00,SE,140,7.0,12.0,90,0.00,,,-99.99,,2013-05-31 10:42:00,
2013-05-31 05:52:00,62.0,59.0,-100.00,SSE,150,9.0,16.0,90,0.00,,,-99.99,,2013-05-31 10:52:00,
2013-05-31 06:02:00,62.0,59.0,-100.00,SSE,150,9.0,16.0,90,0.00,,,-99.99,,2013-05-31 11:02:00,
2013-05-31 06:11:00,62.0,59.0,-100.00,South,170,7.0,14.0,90,0.00,,,-99.99,,2013-05-31 11:11:00,
2013-05-31 06:22:00,62.0,59.0,-100.00,SSE,150,7.0,15.0,90,0.00,,,-99.99,,2013-05-31 11:22:00,
2013-05-31 06:32:00,62.0,59.0,-100.00,SE,130,6.0,14.0,90,0.00,,,-99.99,,2013-05-31 11:32:00,
2013-05-31 06:42:00,62.0,59.0,-100.00,SSE,160,9.0,16.0,90,0.00,,,-99.99,,2013-05-31 11:42:00,
2013-05-31 06:52:00,62.0,59.0,-100.00,SE,145,7.0,16.0,90,0.00,,,-99.99,,2013-05-31 11:52:00,
2013-05-31 07:01:00,62.0,59.0,-100.00,SE,145,6.0,9.0,90,0.00,,,-99.99,,2013-05-31 12:01:00,
2013-05-31 07:11:00,62.0,59.0,-100.00,South,170,6.0,12.0,90,0.00,,,-99.99,,2013-05-31 12:11:00,
2013-05-31 07:21:00,62.0,59.0,-100.00,SSE,165,6.0,10.0,90,0.00,,,-99.99,,2013-05-31 12:21:00,
2013-05-31 07:31:00,62.0,59.0,-100.00,SSE,150,4.0,9.0,90,0.00,,,-99.99,,2013-05-31 12:31:00,
2013-05-31 07:41:00,62.0,60.0,-100.00,SE,135,4.0,7.0,90,0.00,,,-99.99,,2013-05-31 12:41:00,
2013-05-31 07:52:00,63.0,60.0,-100.00,South,180,4.0,7.0,90,0.00,,,-99.99,,2013-05-31 12:52:00,
2013-05-31 08:01:00,63.0,60.0,-100.00,SE,145,6.0,12.0,90,0.00,,,-99.99,,2013-05-31 13:01:00,
2013-05-31 08:11:00,63.0,60.0,-100.00,South,175,7.0,12.0,90,0.00,,,-99.99,,2013-05-31 13:11:00,
2013-05-31 08:21:00,63.0,61.0,-100.00,SSW,195,7.0,13.0,90,0.00,,,-99.99,,2013-05-31 13:21:00,
2013-05-31 08:32:00,65.0,62.0,-100.00,South,185,7.0,13.0,90,0.00,,,-99.99,,2013-05-31 13:32:00,
2013-05-31 08:42:00,67.0,63.0,-100.00,SSW,210,9.0,14.0,90,0.00,,,-99.99,,2013-05-31 13:42:00,
2013-05-31 08:52:00,67.0,62.0,-100.00,South,175,9.0,16.0,84,0.00,,,-99.99,,2013-05-31 13:52:00,
2013-05-31 09:02:00,67.0,62.0,-100.00,South,175,9.0,16.0,84,0.00,,,-99.99,,2013-05-31 14:02:00,
2013-05-31 09:11:00,68.0,57.0,-100.00,South,175,9.0,21.0,68,0.00,,,-99.99,,2013-05-31 14:11:00,
2013-05-31 09:21:00,69.0,57.0,-100.00,SSW,200,8.0,16.0,65,0.00,,,-99.99,,2013-05-31 14:21:00,
2013-05-31 09:32:00,69.0,56.0,-100.00,SSW,200,11.0,20.0,63,0.00,,,-99.99,,2013-05-31 14:32:00,
2013-05-31 09:41:00,69.0,56.0,-100.00,SSW,200,11.0,19.0,63,0.00,,,-99.99,,2013-05-31 14:41:00,
2013-05-31 09:52:00,70.0,56.0,-100.00,SSW,200,13.0,21.0,63,0.00,,,-99.99,,2013-05-31 14:52:00,
2013-05-31 10:01:00,70.0,56.0,-100.00,SSW,200,13.0,21.0,63,0.00,,,-99.99,,2013-05-31 15:01:00,
2013-05-31 10:11:00,69.0,56.0,-100.00,SSW,210,9.0,15.0,64,0.00,,,-99.99,,2013-05-31 15:11:00,
2013-05-31 10:21:00,69.0,56.0,-100.00,SSW,210,9.0,15.0,64,0.00,,,-99.99,,2013-05-31 15:21:00,
2013-05-31 10:33:00,69.0,56.0,-100.00,SSW,210,7.0,18.0,64,0.00,,,-99.99,,2013-05-31 15:33:00,
2013-05-31 10:43:00,69.0,56.0,-100.00,SSW,210,7.0,18.0,64,0.00,,,-99.99,,2013-05-31 15:43:00,
2013-05-31 10:53:00,69.0,56.0,-100.00,South,185,11.0,19.0,64,0.00,,,-99.99,,2013-05-31 15:53:00,
2013-05-31 11:03:00,69.0,56.0,-100.00,South,185,11.0,19.0,64,0.00,,,-99.99,,2013-05-31 16:03:00,
2013-05-31 11:12:00,71.0,57.0,-100.00,SSW,195,7.0,17.0,62,0.00,,,-99.99,,2013-05-31 16:12:00,
2013-05-31 11:22:00,70.0,57.0,-100.00,South,175,7.0,20.0,62,0.00,,,-99.99,,2013-05-31 16:22:00,
2013-05-31 11:33:00,72.0,58.0,-100.00,South,180,10.0,16.0,61,0.00,,,-99.99,,2013-05-31 16:33:00,
2013-05-31 11:42:00,72.0,58.0,-100.00,South,180,10.0,16.0,61,0.00,,,-99.99,,2013-05-31 16:42:00,
2013-05-31 11:52:00,70.0,57.0,-100.00,South,180,8.0,17.0,64,0.00,,,-99.99,,2013-05-31 16:52:00,
2013-05-31 12:02:00,70.0,58.0,-100.00,South,185,8.0,15.0,65,0.00,,,-99.99,,2013-05-31 17:02:00,
2013-05-31 12:12:00,69.0,57.0,-100.00,South,175,8.0,14.0,66,0.00,,,-99.99,,2013-05-31 17:12:00,
2013-05-31 12:22:00,69.0,57.0,-100.00,South,175,8.0,14.0,66,0.00,,,-99.99,,2013-05-31 17:22:00,
2013-05-31 12:32:00,63.0,58.0,-100.00,SSW,200,9.0,17.0,82,1.03,,,-99.99,,2013-05-31 17:32:00,
2013-05-31 12:42:00,63.0,58.0,-100.00,SSW,200,9.0,17.0,82,1.03,,,-99.99,,2013-05-31 17:42:00,
2013-05-31 12:52:00,62.0,58.0,-100.00,South,180,7.0,16.0,86,0.47,,,-99.99,,2013-05-31 17:52:00,
2013-05-31 13:01:00,62.0,59.0,-100.00,South,170,7.0,14.0,88,0.16,,,-99.99,,2013-05-31 18:01:00,
2013-05-31 13:11:00,63.0,59.0,-100.00,SSE,165,6.0,12.0,88,0.64,,,-99.99,,2013-05-31 18:11:00,
2013-05-31 13:22:00,63.0,59.0,-100.00,SSE,165,6.0,12.0,88,0.64,,,-99.99,,2013-05-31 18:22:00,
2013-05-31 13:32:00,64.0,61.0,-100.00,South,175,4.0,9.0,89,0.00,,,-99.99,,2013-05-31 18:32:00,
2013-05-31 13:42:00,64.0,61.0,-100.00,South,175,4.0,9.0,89,0.00,,,-99.99,,2013-05-31 18:42:00,
2013-05-31 13:52:00,64.0,61.0,-100.00,South,170,6.0,11.0,89,0.00,,,-99.99,,2013-05-31 18:52:00,
2013-05-31 14:02:00,66.0,62.0,-100.00,SSE,155,6.0,11.0,89,0.00,,,-99.99,,2013-05-31 19:02:00,
2013-05-31 14:11:00,69.0,65.0,-100.00,SSW,195,4.0,9.0,89,0.00,,,-99.99,,2013-05-31 19:11:00,
2013-05-31 14:22:00,69.0,66.0,-100.00,South,175,4.0,10.0,89,0.00,,,-99.99,,2013-05-31 19:22:00,
2013-05-31 14:32:00,71.0,65.0,-100.00,SSW,195,4.0,11.0,84,0.00,,,-99.99,,2013-05-31 19:32:00,
2013-05-31 14:42:00,71.0,65.0,-100.00,SSW,195,4.0,11.0,84,0.00,,,-99.99,,2013-05-31 19:42:00,
2013-05-31 14:52:00,70.0,63.0,-100.00,SSW,205,9.0,14.0,78,0.00,,,-99.99,,2013-05-31 19:52:00,
2013-05-31 15:01:00,72.0,62.0,-100.00,South,180,7.0,18.0,70,0.00,,,-99.99,,2013-05-31 20:01:00,
2013-05-31 15:11:00,72.0,61.0,-100.00,South,175,9.0,17.0,67,0.00,,,-99.99,,2013-05-31 20:11:00,
2013-05-31 15:22:00,72.0,61.0,-100.00,South,175,9.0,17.0,67,0.00,,,-99.99,,2013-05-31 20:22:00,
2013-05-31 15:32:00,73.0,60.0,-100.00,South,180,9.0,17.0,64,0.00,,,-99.99,,2013-05-31 20:32:00,
2013-05-31 15:41:00,73.0,60.0,-100.00,South,180,9.0,17.0,64,0.00,,,-99.99,,2013-05-31 20:41:00,
2013-05-31 15:52:00,74.0,61.0,-100.00,SSE,160,8.0,16.0,64,0.00,,,-99.99,,2013-05-31 20:52:00,
2013-05-31 16:01:00,74.0,61.0,-100.00,SSE,160,8.0,16.0,64,0.00,,,-99.99,,2013-05-31 21:01:00,
2013-05-31 16:11:00,74.0,61.0,-100.00,South,175,8.0,17.0,63,0.00,,,-99.99,,2013-05-31 21:11:00,
2013-05-31 16:22:00,74.0,61.0,-100.00,SSE,165,10.0,14.0,63,0.00,,,-99.99,,2013-05-31 21:22:00,
2013-05-31 16:32:00,75.0,61.0,-100.00,SSW,195,7.0,14.0,61,0.00,,,-99.99,,2013-05-31 21:32:00,
2013-05-31 16:42:00,75.0,61.0,-100.00,SSW,195,7.0,14.0,61,0.00,,,-99.99,,2013-05-31 21:42:00,
2013-05-31 16:53:00,76.0,61.0,-100.00,SE,140,7.0,12.0,59,0.00,,,-99.99,,2013-05-31 21:53:00,
2013-05-31 17:02:00,77.0,62.0,-100.00,SSE,150,6.0,13.0,59,0.00,,,-99.99,,2013-05-31 22:02:00,
2013-05-31 17:12:00,76.0,61.0,-100.00,South,190,7.0,16.0,58,0.00,,,-99.99,,2013-05-31 22:12:00,
2013-05-31 17:22:00,76.0,61.0,-100.00,South,190,7.0,16.0,58,0.00,,,-99.99,,2013-05-31 22:22:00,
2013-05-31 17:33:00,76.0,62.0,-100.00,South,190,6.0,16.0,61,0.00,,,-99.99,,2013-05-31 22:33:00,
2013-05-31 17:42:00,76.0,62.0,-100.00,South,190,6.0,16.0,61,0.00,,,-99.99,,2013-05-31 22:42:00,
2013-05-31 17:52:00,76.0,61.0,-100.00,SSW,195,8.0,14.0,59,0.00,,,-99.99,,2013-05-31 22:52:00,
2013-05-31 18:02:00,76.0,61.0,-100.00,SSW,205,4.0,10.0,59,0.00,,,-99.99,,2013-05-31 23:02:00,
2013-05-31 18:12:00,76.0,61.0,-100.00,SSW,205,4.0,10.0,59,0.00,,,-99.99,,2013-05-31 23:12:00,
2013-05-31 18:21:00,77.0,62.0,-100.00,SSE,165,5.0,9.0,58,0.00,,,-99.99,,2013-05-31 23:21:00,
2013-05-31 18:32:00,77.0,61.0,-100.00,SSW,205,4.0,11.0,58,0.08,,,-99.99,,2013-05-31 23:32:00,
2013-05-31 18:42:00,77.0,61.0,-100.00,South,185,6.0,12.0,58,0.00,,,-99.99,,2013-05-31 23:42:00,
2013-05-31 18:52:00,76.0,62.0,-100.00,SSE,160,6.0,12.0,60,0.00,,,-99.99,,2013-05-31 23:52:00,
2013-05-31 19:01:00,76.0,62.0,-100.00,SSE,160,6.0,12.0,60,0.00,,,-99.99,,2013-06-01 00:01:00,
2013-05-31 19:11:00,75.0,61.0,-100.00,South,185,7.0,14.0,61,0.07,,,-99.99,,2013-06-01 00:11:00,
2013-05-31 19:22:00,73.0,61.0,-100.00,South,180,5.0,11.0,66,0.00,,,-99.99,,2013-06-01 00:22:00,
2013-05-31 19:32:00,71.0,63.0,-100.00,SSE,160,6.0,15.0,73,0.00,,,-99.99,,2013-06-01 00:32:00,
2013-05-31 19:42:00,70.0,63.0,-100.00,SSW,195,6.0,14.0,76,0.00,,,-99.99,,2013-06-01 00:42:00,
2013-05-31 19:52:00,70.0,63.0,-100.00,SSE,165,6.0,12.0,78,0.00,,,-99.99,,2013-06-01 00:52:00,
2013-05-31 20:01:00,70.0,63.0,-100.00,SSE,165,6.0,12.0,78,0.00,,,-99.99,,2013-06-01 01:01:00,
2013-05-31 20:11:00,71.0,63.0,-100.00,South,170,5.0,10.0,78,0.00,,,-99.99,,2013-06-01 01:11:00,
2013-05-31 20:21:00,70.0,63.0,-100.00,South,185,7.0,14.0,78,0.00,,,-99.99,,2013-06-01 01:21:00,
2013-05-31 20:32:00,69.0,63.0,-100.00,South,180,6.0,11.0,80,0.00,,,-99.99,,2013-06-01 01:32:00,
2013-05-31 20:42:00,69.0,63.0,-100.00,South,180,6.0,11.0,80,0.00,,,-99.99,,2013-06-01 01:42:00,
2013-05-31 20:52:00,67.0,63.0,-100.00,SSE,155,4.0,11.0,84,0.00,,,-99.99,,2013-06-01 01:52:00,
2013-05-31 21:01:00,67.0,63.0,-100.00,SSE,155,4.0,11.0,84,0.00,,,-99.99,,2013-06-01 02:01:00,
2013-05-31 21:11:00,67.0,62.0,-100.00,South,175,5.0,9.0,86,0.11,,,-99.99,,2013-06-01 02:11:00,
2013-05-31 21:21:00,66.0,62.0,-100.00,SE,130,6.0,9.0,86,0.08,,,-99.99,,2013-06-01 02:21:00,
2013-05-31 21:32:00,66.0,62.0,-100.00,South,170,4.0,7.0,87,0.08,,,-99.99,,2013-06-01 02:32:00,
2013-05-31 21:42:00,66.0,62.0,-100.00,South,170,4.0,7.0,87,0.08,,,-99.99,,2013-06-01 02:42:00,
2013-05-31 21:51:00,66.0,62.0,-100.00,South,190,4.0,9.0,88,0.00,,,-99.99,,2013-06-01 02:51:00,
2013-05-31 22:01:00,65.0,62.0,-100.00,SSE,160,4.0,8.0,88,0.00,,,-99.99,,2013-06-01 03:01:00,
2013-05-31 22:11:00,65.0,62.0,-100.00,SE,140,4.0,7.0,88,0.00,,,-99.99,,2013-06-01 03:11:00,
2013-05-31 22:21:00,65.0,62.0,-100.00,SE,140,4.0,7.0,88,0.00,,,-99.99,,2013-06-01 03:21:00,
2013-05-31 22:33:00,65.0,62.0,-100.00,SSE,155,4.0,9.0,89,0.00,,,-99.99,,2013-06-01 03:33:00,
2013-05-31 22:43:00,65.0,62.0,-100.00,South,170,6.0,9.0,89,0.00,,,-99.99,,2013-06-01 03:43:00,
2013-05-31 22:53:00,65.0,62.0,-100.00,South,185,5.0,9.0,89,0.00,,,-99.99,,2013-06-01 03:53:00,
2013-05-31 23:03:00,65.0,62.0,-100.00,South,185,5.0,9.0,89,0.00,,,-99.99,,2013-06-01 04:03:00,
2013-05-31 23:12:00,64.0,61.0,-100.00,South,175,6.0,9.0,89,0.00,,,-99.99,,2013-06-01 04:12:00,
2013-05-31 23:23:00,64.0,61.0,-100.00,South,175,6.0,9.0,89,0.10,,,-99.99,,2013-06-01 04:23:00,
2013-05-31 23:33:00,65.0,62.0,-100.00,SSE,160,5.0,11.0,89,0.00,,,-99.99,,2013-06-01 04:33:00,
2013-05-31 23:42:00,65.0,62.0,-100.00,SSW,200,6.0,11.0,90,0.00,,,-99.99,,2013-06-01 04:42:00,
2013-05-31 23:53:00,64.0,62.0,-100.00,South,175,4.0,8.0,90,0.00,,,-99.99,,2013-06-01 04:53:00,